createdAt,value
2023-04-15T00:00:05.999Z,74.5849
2023-04-15T00:01:06.334Z,74.2052
2023-04-15T00:02:06.645Z,74.1406
2023-04-15T00:03:07.037Z,74.3038
2023-04-15T00:04:07.782Z,74.4568
2023-04-15T00:05:08.187Z,74.4640
2023-04-15T00:06:08.550Z,74.4350
2023-04-15T00:07:08.877Z,74.6465
2023-04-15T00:08:09.156Z,74.5526
2023-04-15T00:09:09.528Z,74.5773
2023-04-15T00:10:09.823Z,74.3632
2023-04-15T00:11:10.075Z,74.1484
2023-04-15T00:12:10.389Z,74.1589
2023-04-15T00:13:10.676Z,74.0154
2023-04-15T00:14:10.969Z,73.9555
2023-04-15T00:15:11.229Z,73.8031
2023-04-15T00:16:11.507Z,73.9948
2023-04-15T00:17:11.741Z,73.7569
2023-04-15T00:18:12.038Z,73.4572
2023-04-15T00:19:12.337Z,73.2124
2023-04-15T00:20:12.637Z,73.0006
2023-04-15T00:21:12.928Z,73.1237
2023-04-15T00:22:13.231Z,73.1739
2023-04-15T00:23:13.470Z,73.2850
2023-04-15T00:24:13.767Z,72.8225
2023-04-15T00:25:14.080Z,72.4881
2023-04-15T00:26:14.344Z,72.4049
2023-04-15T00:27:14.669Z,72.2656
2023-04-15T00:28:14.964Z,72.0696
2023-04-15T00:29:15.244Z,71.9720
2023-04-15T00:30:15.559Z,72.1118
2023-04-15T00:31:15.947Z,72.6105
2023-04-15T00:32:16.258Z,72.5468
2023-04-15T00:33:16.508Z,72.4303
2023-04-15T00:34:16.791Z,72.1077
2023-04-15T00:35:17.129Z,71.9482
2023-04-15T00:36:17.416Z,72.1774
2023-04-15T00:37:17.755Z,72.5874
2023-04-15T00:38:18.026Z,73.1379
2023-04-15T00:39:18.296Z,73.4146
2023-04-15T00:40:18.576Z,73.5407
2023-04-15T00:41:18.860Z,74.0232
2023-04-15T00:42:19.101Z,74.4591
2023-04-15T00:43:19.381Z,74.5174
2023-04-15T00:44:19.920Z,74.5388
2023-04-15T00:45:20.252Z,74.5034
2023-04-15T00:46:20.675Z,74.6759
2023-04-15T00:47:21.036Z,75.1903
2023-04-15T00:48:21.360Z,75.4335
2023-04-15T00:49:21.579Z,75.3966
2023-04-15T00:50:21.860Z,75.3178
2023-04-15T00:51:22.114Z,75.2947
2023-04-15T00:52:22.437Z,75.1610
2023-04-15T00:53:22.816Z,75.3292
2023-04-15T00:54:23.140Z,75.2073
2023-04-15T00:55:23.421Z,75.3341
2023-04-15T00:56:23.689Z,75.5369
2023-04-15T00:57:23.999Z,75.2423
2023-04-15T00:58:24.340Z,74.9838
2023-04-15T00:59:24.623Z,74.6808
2023-04-15T01:00:24.963Z,74.6718
2023-04-15T01:01:25.164Z,74.7109
2023-04-15T01:02:25.483Z,74.9933
2023-04-15T01:03:25.947Z,74.6312
2023-04-15T01:04:26.564Z,74.6588
2023-04-15T01:05:26.894Z,74.3703
2023-04-15T01:06:27.173Z,74.2927
2023-04-15T01:07:27.400Z,74.5718
2023-04-15T01:08:27.697Z,74.7031
2023-04-15T01:09:27.979Z,75.0630
2023-04-15T01:10:28.244Z,75.4957
2023-04-15T01:11:28.528Z,75.6126
2023-04-15T01:12:28.736Z,75.2621
2023-04-15T01:13:29.023Z,75.2897
2023-04-15T01:14:29.316Z,75.3336
2023-04-15T01:15:29.629Z,75.1945
2023-04-15T01:16:29.983Z,74.8597
2023-04-15T01:17:30.235Z,74.6236
2023-04-15T01:18:30.484Z,74.5131
2023-04-15T01:19:30.753Z,74.0786
2023-04-15T01:20:31.071Z,73.8156
2023-04-15T01:21:31.361Z,73.6274
2023-04-15T01:22:31.665Z,73.2184
2023-04-15T01:23:31.916Z,72.9457
2023-04-15T01:24:34.326Z,72.5035
2023-04-15T01:25:36.131Z,72.4010
2023-04-15T01:26:36.445Z,72.5058
2023-04-15T01:27:36.719Z,72.4404
2023-04-15T01:28:37.050Z,72.5277
2023-04-15T01:29:37.316Z,72.5528
2023-04-15T01:30:37.588Z,72.6421
2023-04-15T01:31:37.936Z,72.5549
2023-04-15T01:32:38.322Z,72.5233
2023-04-15T01:33:38.629Z,72.2760
2023-04-15T01:34:38.924Z,72.1339
2023-04-15T01:35:39.199Z,72.3842
2023-04-15T01:36:39.478Z,72.8125
2023-04-15T01:37:39.762Z,73.4342
2023-04-15T01:38:40.042Z,73.8064
2023-04-15T01:39:40.328Z,73.4821
2023-04-15T01:40:40.556Z,73.5273
2023-04-15T01:41:40.835Z,73.5949
2023-04-15T01:42:41.147Z,73.4515
2023-04-15T01:43:41.391Z,73.3209
2023-04-15T01:44:41.672Z,73.0560
2023-04-15T01:45:41.900Z,73.0012
2023-04-15T01:46:42.155Z,73.1665
2023-04-15T01:47:42.481Z,73.1000
2023-04-15T01:48:42.730Z,72.9071
2023-04-15T01:49:42.959Z,72.7386
2023-04-15T01:50:43.237Z,72.6202
2023-04-15T01:51:43.542Z,72.7660
2023-04-15T01:52:43.918Z,72.6932
2023-04-15T01:53:44.265Z,72.7778
2023-04-15T01:54:44.629Z,72.8510
2023-04-15T01:55:44.939Z,72.7739
2023-04-15T01:56:45.271Z,72.3808
2023-04-15T01:57:45.610Z,71.6646
2023-04-15T01:58:46.040Z,71.7619
2023-04-15T01:59:46.353Z,72.2525
2023-04-15T02:00:46.702Z,72.8170
2023-04-15T02:01:47.018Z,73.6684
2023-04-15T02:02:47.339Z,74.8360
2023-04-15T02:03:47.891Z,75.3924
2023-04-15T02:04:48.524Z,75.8809
2023-04-15T02:05:48.816Z,76.1566
2023-04-15T02:06:49.170Z,75.9908
2023-04-15T02:07:49.471Z,75.8710
2023-04-15T02:08:49.739Z,75.8979
2023-04-15T02:09:50.106Z,76.0987
2023-04-15T02:10:50.456Z,76.1852
2023-04-15T02:11:50.779Z,76.0816
2023-04-15T02:12:51.075Z,76.0915
2023-04-15T02:13:51.410Z,76.0027
2023-04-15T02:14:51.753Z,76.0045
2023-04-15T02:15:52.237Z,76.0121
2023-04-15T02:16:52.623Z,76.0195
2023-04-15T02:17:52.984Z,75.5435
2023-04-15T02:18:53.329Z,75.5639
2023-04-15T02:19:53.657Z,75.4756
2023-04-15T02:20:53.953Z,75.6552
2023-04-15T02:21:54.281Z,76.2755
2023-04-15T02:22:54.599Z,76.6613
2023-04-15T02:23:54.916Z,77.7870
2023-04-15T02:24:55.222Z,78.2759
2023-04-15T02:25:55.586Z,78.8804
2023-04-15T02:26:55.934Z,78.9633
2023-04-15T02:27:56.209Z,79.4791
2023-04-15T02:28:56.576Z,79.2566
2023-04-15T02:29:56.907Z,79.4946
2023-04-15T02:30:57.320Z,79.5258
2023-04-15T02:31:57.783Z,79.2162
2023-04-15T02:32:58.134Z,79.0634
2023-04-15T02:33:58.444Z,78.7214
2023-04-15T02:34:58.779Z,78.6031
2023-04-15T02:35:59.076Z,78.4468
2023-04-15T02:36:59.384Z,78.5422
2023-04-15T02:37:59.629Z,78.2454
2023-04-15T02:39:00.127Z,78.1302
2023-04-15T02:40:00.661Z,78.1490
2023-04-15T02:41:00.907Z,78.6467
2023-04-15T02:42:01.293Z,77.5645
2023-04-15T02:43:01.542Z,77.1106
2023-04-15T02:44:01.910Z,76.6583
2023-04-15T02:45:02.349Z,76.1717
2023-04-15T02:46:02.853Z,76.2783
2023-04-15T02:47:03.287Z,76.5172
2023-04-15T02:48:03.617Z,76.9490
2023-04-15T02:49:03.914Z,76.6662
2023-04-15T02:50:04.266Z,76.6476
2023-04-15T02:51:04.563Z,76.6385
2023-04-15T02:52:04.848Z,76.8244
2023-04-15T02:53:05.173Z,77.2713
2023-04-15T02:54:05.488Z,77.5473
2023-04-15T02:55:05.796Z,77.6214
2023-04-15T02:56:06.137Z,77.5375
2023-04-15T02:57:06.458Z,77.6077
2023-04-15T02:58:06.816Z,77.7928
2023-04-15T02:59:07.154Z,77.8658
2023-04-15T03:00:07.475Z,77.9252
2023-04-15T03:01:08.128Z,77.8787
2023-04-15T03:02:08.817Z,78.1058
2023-04-15T03:03:09.276Z,78.1360
2023-04-15T03:04:09.723Z,78.0834
2023-04-15T03:05:10.153Z,78.1513
2023-04-15T03:06:10.416Z,78.2948
2023-04-15T03:07:10.753Z,78.1970
2023-04-15T03:08:11.030Z,78.1675
2023-04-15T03:09:11.357Z,78.0155
2023-04-15T03:10:11.693Z,78.0481
2023-04-15T03:11:13.175Z,77.5467
2023-04-15T03:12:13.503Z,77.4738
2023-04-15T03:13:13.849Z,77.5522
2023-04-15T03:14:14.138Z,77.4803
2023-04-15T03:15:14.499Z,77.4581
2023-04-15T03:16:14.868Z,77.5584
2023-04-15T03:17:15.198Z,77.8103
2023-04-15T03:18:15.491Z,77.7990
2023-04-15T03:19:15.849Z,77.9603
2023-04-15T03:20:16.243Z,77.8043
2023-04-15T03:21:16.661Z,77.7948
2023-04-15T03:22:17.001Z,77.7117
2023-04-15T03:23:17.315Z,77.9104
2023-04-15T03:24:17.678Z,78.1806
2023-04-15T03:25:17.969Z,78.2761
2023-04-15T03:26:18.283Z,78.2824
2023-04-15T03:27:18.606Z,78.1880
2023-04-15T03:28:19.094Z,78.1923
2023-04-15T03:29:19.626Z,78.0892
2023-04-15T03:30:19.946Z,77.8342
2023-04-15T03:31:20.315Z,77.6636
2023-04-15T03:32:20.640Z,77.1563
2023-04-15T03:33:20.985Z,76.9378
2023-04-15T03:34:21.367Z,77.0328
2023-04-15T03:35:21.730Z,76.8365
2023-04-15T03:36:22.052Z,76.5152
2023-04-15T03:37:22.381Z,76.4048
2023-04-15T03:38:22.662Z,76.4079
2023-04-15T03:39:22.974Z,76.1312
2023-04-15T03:40:23.271Z,76.1821
2023-04-15T03:41:23.559Z,76.1384
2023-04-15T03:42:23.859Z,76.2763
2023-04-15T03:43:24.234Z,76.6349
2023-04-15T03:44:24.501Z,77.3901
2023-04-15T03:45:24.818Z,77.7212
2023-04-15T03:46:25.189Z,77.9025
2023-04-15T03:47:25.589Z,77.8786
2023-04-15T03:48:25.901Z,77.7417
2023-04-15T03:49:26.241Z,77.6624
2023-04-15T03:50:26.559Z,77.4917
2023-04-15T03:51:26.889Z,77.4559
2023-04-15T03:52:27.165Z,77.5195
2023-04-15T03:53:27.561Z,77.9615
2023-04-15T03:54:27.868Z,78.2961
2023-04-15T03:55:28.212Z,78.2119
2023-04-15T03:56:28.718Z,78.1659
2023-04-15T03:57:29.297Z,78.4402
2023-04-15T03:58:29.615Z,78.3212
2023-04-15T03:59:29.981Z,78.0494
2023-04-15T04:00:30.294Z,77.9126
2023-04-15T04:01:30.714Z,77.9504
2023-04-15T04:02:31.114Z,78.0548
2023-04-15T04:03:31.671Z,78.0819
2023-04-15T04:04:32.184Z,78.3053
2023-04-15T04:05:32.817Z,78.3790
2023-04-15T04:06:33.318Z,78.4867
2023-04-15T04:07:33.673Z,78.2673
2023-04-15T04:08:33.977Z,78.3126
2023-04-15T04:09:34.314Z,78.2328
2023-04-15T04:10:34.617Z,78.1753
2023-04-15T04:11:36.353Z,78.1863
2023-04-15T04:12:36.646Z,78.1651
2023-04-15T04:13:36.970Z,78.0578
2023-04-15T04:14:37.290Z,78.1440
2023-04-15T04:15:37.757Z,78.0819
2023-04-15T04:16:38.119Z,78.0373
2023-04-15T04:17:38.431Z,78.0374
2023-04-15T04:18:38.743Z,78.0513
2023-04-15T04:19:39.038Z,77.9749
2023-04-15T04:20:39.366Z,77.8294
2023-04-15T04:21:39.730Z,77.9040
2023-04-15T04:22:40.112Z,77.8958
2023-04-15T04:23:40.467Z,78.0127
2023-04-15T04:24:40.742Z,78.0347
2023-04-15T04:25:41.052Z,77.6985
2023-04-15T04:26:41.357Z,77.5615
2023-04-15T04:27:41.648Z,77.5544
2023-04-15T04:28:41.930Z,77.3649
2023-04-15T04:29:42.269Z,77.5327
2023-04-15T04:30:42.605Z,77.5026
2023-04-15T04:31:42.932Z,77.6212
2023-04-15T04:32:43.300Z,77.7741
2023-04-15T04:33:43.593Z,77.8346
2023-04-15T04:34:43.948Z,77.8059
2023-04-15T04:35:44.321Z,77.6747
2023-04-15T04:36:44.660Z,77.9847
2023-04-15T04:37:45.027Z,78.1223
2023-04-15T04:38:45.327Z,77.8286
2023-04-15T04:39:45.669Z,77.4771
2023-04-15T04:40:46.011Z,77.4776
2023-04-15T04:41:46.359Z,77.1056
2023-04-15T04:42:46.687Z,77.0806
2023-04-15T04:43:47.007Z,76.8361
2023-04-15T04:44:47.309Z,76.5810
2023-04-15T04:45:47.714Z,76.5962
2023-04-15T04:46:48.023Z,76.4012
2023-04-15T04:47:48.331Z,76.3303
2023-04-15T04:48:48.684Z,76.2070
2023-04-15T04:49:49.013Z,76.3106
2023-04-15T04:50:49.374Z,76.2761
2023-04-15T04:51:49.629Z,76.2212
2023-04-15T04:52:49.987Z,76.2039
2023-04-15T04:53:50.322Z,76.2784
2023-04-15T04:54:50.640Z,76.0983
2023-04-15T04:55:50.976Z,75.7583
2023-04-15T04:56:51.325Z,75.5481
2023-04-15T04:57:51.699Z,75.3081
2023-04-15T04:58:52.055Z,75.3743
2023-04-15T04:59:52.354Z,75.3705
2023-04-15T05:00:52.697Z,75.3315
2023-04-15T05:01:53.056Z,75.3794
2023-04-15T05:02:53.538Z,75.2946
2023-04-15T05:03:54.135Z,75.3415
2023-04-15T05:04:54.590Z,75.5388
2023-04-15T05:05:54.966Z,75.7133
2023-04-15T05:06:55.336Z,75.6134
2023-04-15T05:07:55.756Z,75.6066
2023-04-15T05:08:56.049Z,75.9341
2023-04-15T05:09:56.397Z,76.1322
2023-04-15T05:10:56.741Z,76.3477
2023-04-15T05:11:57.049Z,76.4452
2023-04-15T05:12:57.384Z,76.3391
2023-04-15T05:13:57.707Z,76.2877
2023-04-15T05:14:58.079Z,76.3965
2023-04-15T05:15:58.440Z,76.8032
2023-04-15T05:16:58.762Z,77.0449
2023-04-15T05:17:59.194Z,77.2899
2023-04-15T05:18:59.632Z,77.2717
2023-04-15T05:20:00.211Z,77.4722
2023-04-15T05:21:00.563Z,77.5051
2023-04-15T05:22:00.872Z,77.2209
2023-04-15T05:23:01.244Z,77.1007
2023-04-15T05:24:01.553Z,76.9817
2023-04-15T05:25:01.884Z,76.6908
2023-04-15T05:26:02.218Z,76.4253
2023-04-15T05:27:02.590Z,76.2428
2023-04-15T05:28:03.008Z,76.2236
2023-04-15T05:29:03.457Z,76.2582
2023-04-15T05:30:03.947Z,76.1336
2023-04-15T05:31:04.321Z,75.9399
2023-04-15T05:32:04.652Z,75.6349
2023-04-15T05:33:05.105Z,75.7388
2023-04-15T05:34:05.512Z,75.9365
2023-04-15T05:35:05.839Z,75.9285
2023-04-15T05:36:06.172Z,75.9917
2023-04-15T05:37:06.507Z,75.9912
2023-04-15T05:38:06.857Z,75.8371
2023-04-15T05:39:07.222Z,76.0716
2023-04-15T05:40:07.590Z,75.9816
2023-04-15T05:41:07.888Z,75.8243
2023-04-15T05:42:08.260Z,75.8957
2023-04-15T05:43:08.605Z,75.8343
2023-04-15T05:44:08.896Z,75.8647
2023-04-15T05:45:09.307Z,76.0263
2023-04-15T05:46:09.736Z,76.0552
2023-04-15T05:47:10.026Z,75.7303
2023-04-15T05:48:10.443Z,75.5369
2023-04-15T05:49:10.814Z,75.4622
2023-04-15T05:50:11.160Z,75.5644
2023-04-15T05:51:11.640Z,75.6743
2023-04-15T05:52:11.964Z,75.3959
2023-04-15T05:53:12.280Z,75.3006
2023-04-15T05:54:12.585Z,75.6035
2023-04-15T05:55:12.916Z,75.4500
2023-04-15T05:56:13.242Z,75.3843
2023-04-15T05:57:13.562Z,75.4336
2023-04-15T05:58:13.887Z,75.5542
2023-04-15T05:59:14.177Z,75.5230
2023-04-15T06:00:14.569Z,75.5601
2023-04-15T06:01:14.892Z,75.6360
2023-04-15T06:02:15.335Z,75.5245
2023-04-15T06:03:15.704Z,75.3264
2023-04-15T06:04:16.028Z,74.7942
2023-04-15T06:05:16.372Z,74.2974
2023-04-15T06:06:16.890Z,74.3053
2023-04-15T06:07:17.288Z,74.2642
2023-04-15T06:08:17.615Z,74.3522
2023-04-15T06:09:17.885Z,74.4729
2023-04-15T06:10:18.164Z,74.1795
2023-04-15T06:11:18.437Z,73.9973
2023-04-15T06:12:18.867Z,74.0827
2023-04-15T06:13:19.127Z,74.5679
2023-04-15T06:14:19.423Z,74.6719
2023-04-15T06:15:19.797Z,75.1975
2023-04-15T06:16:20.081Z,74.6756
2023-04-15T06:17:20.451Z,74.3516
2023-04-15T06:18:20.702Z,73.9393
2023-04-15T06:19:21.149Z,73.8239
2023-04-15T06:20:21.397Z,73.9751
2023-04-15T06:21:21.740Z,74.1208
2023-04-15T06:22:22.091Z,74.0510
2023-04-15T06:23:22.411Z,74.2554
2023-04-15T06:24:22.732Z,74.0493
2023-04-15T06:25:23.047Z,73.4660
2023-04-15T06:26:23.321Z,72.9978
2023-04-15T06:27:23.654Z,72.3851
2023-04-15T06:28:23.940Z,72.1232
2023-04-15T06:29:24.251Z,72.4185
2023-04-15T06:30:24.639Z,72.4999
2023-04-15T06:31:24.973Z,72.2182
2023-04-15T06:32:25.297Z,72.2612
2023-04-15T06:33:25.597Z,72.3665
2023-04-15T06:34:25.941Z,72.2957
2023-04-15T06:35:26.241Z,72.1740
2023-04-15T06:36:26.608Z,71.9641
2023-04-15T06:37:26.914Z,71.7100
2023-04-15T06:38:27.334Z,71.3195
2023-04-15T06:39:27.661Z,70.5133
2023-04-15T06:40:27.996Z,70.6195
2023-04-15T06:41:28.255Z,71.1009
2023-04-15T06:42:28.575Z,71.1985
2023-04-15T06:43:28.907Z,70.9365
2023-04-15T06:44:29.268Z,71.0730
2023-04-15T06:45:29.678Z,70.9024
2023-04-15T06:46:30.005Z,70.8102
2023-04-15T06:47:30.370Z,71.5366
2023-04-15T06:48:30.794Z,70.9312
2023-04-15T06:49:31.146Z,71.0505
2023-04-15T06:50:31.517Z,71.2200
2023-04-15T06:51:31.839Z,71.4143
2023-04-15T06:52:32.184Z,71.5734
2023-04-15T06:53:32.617Z,70.9740
2023-04-15T06:54:32.943Z,71.1991
2023-04-15T06:55:33.295Z,71.1222
2023-04-15T06:56:33.629Z,71.2898
2023-04-15T06:57:35.160Z,71.3281
2023-04-15T06:58:35.603Z,71.0779
2023-04-15T06:59:36.132Z,71.2474
2023-04-15T07:00:36.467Z,71.7935
2023-04-15T07:01:36.903Z,71.8622
2023-04-15T07:02:37.319Z,71.9217
2023-04-15T07:03:37.768Z,71.6082
2023-04-15T07:04:38.351Z,71.9608
2023-04-15T07:05:38.745Z,72.3622
2023-04-15T07:06:39.242Z,72.2890
2023-04-15T07:07:39.594Z,71.2163
2023-04-15T07:08:39.902Z,70.7128
2023-04-15T07:09:40.328Z,70.8076
2023-04-15T07:10:40.600Z,70.7360
2023-04-15T07:11:40.956Z,70.9266
2023-04-15T07:12:41.274Z,71.2732
2023-04-15T07:13:41.650Z,70.8914
2023-04-15T07:14:41.989Z,71.4582
2023-04-15T07:15:42.319Z,72.1946
2023-04-15T07:16:42.720Z,72.4699
2023-04-15T07:17:43.107Z,72.6615
2023-04-15T07:18:43.473Z,73.2111
2023-04-15T07:19:43.819Z,73.1340
2023-04-15T07:20:44.111Z,73.0101
2023-04-15T07:21:44.470Z,72.7973
2023-04-15T07:22:44.805Z,73.6701
2023-04-15T07:23:45.174Z,74.2940
2023-04-15T07:24:45.583Z,73.9706
2023-04-15T07:25:45.934Z,73.9106
2023-04-15T07:26:46.299Z,73.9475
2023-04-15T07:27:46.624Z,73.6303
2023-04-15T07:28:46.968Z,73.9893
2023-04-15T07:29:47.399Z,74.3922
2023-04-15T07:30:47.818Z,74.8289
2023-04-15T07:31:48.196Z,75.3078
2023-04-15T07:32:48.529Z,75.3644
2023-04-15T07:33:48.962Z,75.4183
2023-04-15T07:34:49.358Z,75.0977
2023-04-15T07:35:49.750Z,75.7061
2023-04-15T07:36:50.075Z,75.7049
2023-04-15T07:37:50.437Z,75.6350
2023-04-15T07:38:50.836Z,75.7538
2023-04-15T07:39:51.325Z,75.9780
2023-04-15T07:40:51.676Z,76.1512
2023-04-15T07:41:52.141Z,76.3944
2023-04-15T07:42:52.515Z,76.3337
2023-04-15T07:43:52.838Z,75.9558
2023-04-15T07:44:53.242Z,75.3619
2023-04-15T07:45:53.642Z,75.4870
2023-04-15T07:46:54.035Z,75.7435
2023-04-15T07:47:54.401Z,76.1465
2023-04-15T07:48:54.745Z,75.8602
2023-04-15T07:49:55.095Z,75.6365
2023-04-15T07:50:55.445Z,75.2629
2023-04-15T07:51:55.791Z,75.2091
2023-04-15T07:52:56.128Z,74.7433
2023-04-15T07:53:56.492Z,74.7332
2023-04-15T07:54:56.811Z,75.0869
2023-04-15T07:55:57.188Z,75.6204
2023-04-15T07:56:57.569Z,75.5387
2023-04-15T07:57:57.907Z,75.7681
2023-04-15T07:58:58.292Z,75.5366
2023-04-15T07:59:58.593Z,75.1126
2023-04-15T08:00:58.963Z,74.7800
2023-04-15T08:01:59.335Z,74.6922
2023-04-15T08:02:59.819Z,74.5426
2023-04-15T08:04:00.763Z,74.7857
2023-04-15T08:05:01.265Z,74.8302
2023-04-15T08:06:01.590Z,74.4679
2023-04-15T08:07:01.943Z,74.3567
2023-04-15T08:08:02.293Z,74.4232
2023-04-15T08:09:02.885Z,74.1805
2023-04-15T08:10:03.317Z,74.7315
2023-04-15T08:11:03.662Z,75.4328
2023-04-15T08:12:04.022Z,75.3699
2023-04-15T08:13:04.352Z,75.1577
2023-04-15T08:14:04.696Z,74.7817
2023-04-15T08:15:04.996Z,74.8639
2023-04-15T08:16:05.415Z,74.7409
2023-04-15T08:17:05.792Z,74.9921
2023-04-15T08:18:06.107Z,74.3398
2023-04-15T08:19:06.471Z,73.8418
2023-04-15T08:20:06.839Z,73.7441
2023-04-15T08:21:07.170Z,73.6277
2023-04-15T08:22:15.636Z,73.4536
2023-04-15T08:23:08.562Z,73.6523
2023-04-15T08:24:08.905Z,73.4444
2023-04-15T08:25:09.237Z,72.9407
2023-04-15T08:26:09.563Z,72.4252
2023-04-15T08:27:09.907Z,72.4894
2023-04-15T08:28:10.225Z,72.2959
2023-04-15T08:29:10.558Z,71.8424
2023-04-15T08:30:10.912Z,71.7376
2023-04-15T08:31:11.256Z,71.5053
2023-04-15T08:32:11.695Z,71.0724
2023-04-15T08:33:12.026Z,70.8745
2023-04-15T08:34:12.375Z,70.7830
2023-04-15T08:35:12.698Z,70.9815
2023-04-15T08:36:13.044Z,72.0844
2023-04-15T08:37:13.469Z,71.4877
2023-04-15T08:38:13.833Z,70.8188
2023-04-15T08:39:14.210Z,70.4228
2023-04-15T08:40:14.548Z,70.6294
2023-04-15T08:41:14.854Z,70.6971
2023-04-15T08:42:15.217Z,70.4928
2023-04-15T08:43:15.570Z,70.1869
2023-04-15T08:44:15.903Z,70.6255
2023-04-15T08:45:16.334Z,70.6497
2023-04-15T08:46:16.681Z,70.9341
2023-04-15T08:47:17.047Z,71.0732
2023-04-15T08:48:17.418Z,70.9507
2023-04-15T08:49:17.765Z,71.0677
2023-04-15T08:50:18.088Z,70.5929
2023-04-15T08:51:18.395Z,70.0813
2023-04-15T08:52:18.757Z,69.6086
2023-04-15T08:53:19.079Z,70.0541
2023-04-15T08:54:19.437Z,70.1799
2023-04-15T08:55:19.730Z,69.7385
2023-04-15T08:56:20.042Z,69.2265
2023-04-15T08:57:20.454Z,69.5648
2023-04-15T08:58:20.799Z,69.5496
2023-04-15T08:59:21.163Z,69.0905
2023-04-15T09:00:21.437Z,68.8123
2023-04-15T09:01:21.873Z,69.2032
2023-04-15T09:02:22.424Z,69.3984
2023-04-15T09:03:23.064Z,69.9872
2023-04-15T09:04:23.420Z,70.6354
2023-04-15T09:05:23.764Z,71.4474
2023-04-15T09:06:24.084Z,72.7758
2023-04-15T09:07:24.472Z,73.5588
2023-04-15T09:08:24.871Z,73.8374
2023-04-15T09:09:25.334Z,73.8283
2023-04-15T09:10:25.677Z,74.7146
2023-04-15T09:11:26.052Z,75.5864
2023-04-15T09:12:26.316Z,75.8683
2023-04-15T09:13:26.662Z,76.2034
2023-04-15T09:14:26.987Z,77.1747
2023-04-15T09:15:27.320Z,76.3415
2023-04-15T09:16:27.682Z,76.7368
2023-04-15T09:17:28.128Z,77.0013
2023-04-15T09:18:28.400Z,76.6079
2023-04-15T09:19:28.732Z,76.8357
2023-04-15T09:20:29.077Z,76.8079
2023-04-15T09:21:29.373Z,76.9057
2023-04-15T09:22:29.708Z,77.7252
2023-04-15T09:23:30.155Z,77.8486
2023-04-15T09:24:30.510Z,77.2805
2023-04-15T09:25:32.776Z,76.6477
2023-04-15T09:26:31.280Z,76.5150
2023-04-15T09:27:31.607Z,76.9873
2023-04-15T09:28:31.942Z,77.3289
2023-04-15T09:29:32.331Z,76.8752
2023-04-15T09:30:32.692Z,77.1264
2023-04-15T09:31:33.026Z,75.2744
2023-04-15T09:32:33.352Z,74.5327
2023-04-15T09:33:34.179Z,75.8389
2023-04-15T09:34:34.551Z,76.0236
2023-04-15T09:35:34.879Z,73.3206
2023-04-15T09:36:35.169Z,73.8866
2023-04-15T09:37:35.546Z,72.5198
2023-04-15T09:38:35.951Z,72.2729
2023-04-15T09:39:36.326Z,73.3169
2023-04-15T09:40:36.691Z,74.2599
2023-04-15T09:41:37.184Z,74.5540
2023-04-15T09:42:37.610Z,73.2127
2023-04-15T09:43:38.083Z,72.0147
2023-04-15T09:44:38.400Z,71.3691
2023-04-15T09:45:38.741Z,71.9524
2023-04-15T09:46:39.071Z,73.2097
2023-04-15T09:47:39.386Z,72.5885
2023-04-15T09:48:39.701Z,71.5488
2023-04-15T09:49:40.045Z,71.1859
2023-04-15T09:50:40.366Z,69.8742
2023-04-15T09:51:41.294Z,69.4847
2023-04-15T09:52:41.724Z,70.1477
2023-04-15T09:53:42.160Z,68.7825
2023-04-15T09:54:42.500Z,68.4632
2023-04-15T09:55:42.887Z,66.7214
2023-04-15T09:56:43.254Z,65.6632
2023-04-15T09:57:44.572Z,65.9023
2023-04-15T09:58:44.994Z,65.5667
2023-04-15T09:59:45.300Z,66.1833
2023-04-15T10:00:45.616Z,66.1089
2023-04-15T10:01:46.162Z,66.0731
2023-04-15T10:02:46.607Z,67.9734
2023-04-15T10:03:47.089Z,70.5996
2023-04-15T10:04:47.430Z,70.1058
2023-04-15T10:05:47.833Z,68.3529
2023-04-15T10:06:48.132Z,67.4077
2023-04-15T10:07:48.496Z,66.8544
2023-04-15T10:08:48.967Z,67.5537
2023-04-15T10:09:49.379Z,68.9196
2023-04-15T10:10:49.706Z,68.2068
2023-04-15T10:11:50.117Z,68.0649
2023-04-15T10:12:50.428Z,69.7001
2023-04-15T10:13:50.775Z,69.7338
2023-04-15T10:14:51.059Z,69.6562
2023-04-15T10:15:51.437Z,69.1691
2023-04-15T10:16:51.847Z,69.1942
2023-04-15T10:17:52.457Z,70.1470
2023-04-15T10:18:52.831Z,70.6611
2023-04-15T10:19:53.200Z,71.5890
2023-04-15T10:20:53.517Z,71.1590
2023-04-15T10:21:53.868Z,70.4104
2023-04-15T10:22:54.229Z,71.1366
2023-04-15T10:23:54.587Z,72.5667
2023-04-15T10:24:54.912Z,72.9324
2023-04-15T10:25:55.282Z,73.2792
2023-04-15T10:26:55.688Z,73.1985
2023-04-15T10:27:56.060Z,73.0861
2023-04-15T10:28:56.946Z,73.4074
2023-04-15T10:29:58.255Z,72.6252
2023-04-15T10:30:59.147Z,72.0450
2023-04-15T10:31:59.673Z,72.6743
2023-04-15T10:33:00.280Z,72.3535
2023-04-15T10:34:01.014Z,72.8123
2023-04-15T10:35:01.512Z,74.2036
2023-04-15T10:36:02.076Z,73.4523
2023-04-15T10:37:02.360Z,74.5523
2023-04-15T10:38:02.712Z,75.2487
2023-04-15T10:39:03.066Z,74.7610
2023-04-15T10:40:05.535Z,73.8719
2023-04-15T10:41:05.931Z,73.1058
2023-04-15T10:42:06.394Z,72.7019
2023-04-15T10:43:06.735Z,73.0955
2023-04-15T10:44:07.093Z,73.1468
2023-04-15T10:45:07.413Z,73.6721
2023-04-15T10:46:07.759Z,72.6475
2023-04-15T10:47:08.059Z,72.5492
2023-04-15T10:48:08.443Z,72.3714
2023-04-15T10:49:08.789Z,71.3765
2023-04-15T10:50:09.145Z,71.8682
2023-04-15T10:51:09.462Z,74.0239
2023-04-15T10:52:09.812Z,76.6041
2023-04-15T10:53:10.105Z,76.5911
2023-04-15T10:54:10.440Z,76.0211
2023-04-15T10:55:10.742Z,76.5142
2023-04-15T10:56:11.085Z,76.8235
2023-04-15T10:57:11.383Z,77.4078
2023-04-15T10:58:11.735Z,76.2104
2023-04-15T10:59:12.101Z,75.9028
2023-04-15T11:00:12.490Z,75.8739
2023-04-15T11:01:12.793Z,75.4080
2023-04-15T11:02:13.262Z,76.4855
2023-04-15T11:03:13.710Z,76.5523
2023-04-15T11:04:14.260Z,76.5344
2023-04-15T11:05:14.566Z,76.7458
2023-04-15T11:06:14.921Z,76.0827
2023-04-15T11:07:15.250Z,75.0563
2023-04-15T11:08:15.569Z,75.3171
2023-04-15T11:09:15.967Z,74.7267
2023-04-15T11:10:16.292Z,74.3650
2023-04-15T11:11:16.634Z,74.4531
2023-04-15T11:12:17.002Z,73.4407
2023-04-15T11:13:17.433Z,73.7285
2023-04-15T11:14:17.895Z,74.1781
2023-04-15T11:15:18.252Z,74.0169
2023-04-15T11:16:18.657Z,73.4967
2023-04-15T11:17:18.931Z,73.1454
2023-04-15T11:18:19.277Z,73.8503
2023-04-15T11:19:19.639Z,73.8263
2023-04-15T11:20:19.958Z,73.4677
2023-04-15T11:21:20.260Z,74.2860
2023-04-15T11:22:20.617Z,75.4269
2023-04-15T11:23:20.889Z,75.9749
2023-04-15T11:24:21.269Z,76.3708
2023-04-15T11:25:22.249Z,76.0557
2023-04-15T11:26:22.591Z,76.7884
2023-04-15T11:27:22.961Z,77.5845
2023-04-15T11:28:23.352Z,77.6108
2023-04-15T11:29:23.757Z,78.0761
2023-04-15T11:30:24.194Z,78.5775
2023-04-15T11:31:24.620Z,78.7412
2023-04-15T11:32:25.298Z,78.9745
2023-04-15T11:33:25.991Z,78.5655
2023-04-15T11:34:26.411Z,78.7713
2023-04-15T11:35:26.785Z,77.3332
2023-04-15T11:36:27.200Z,77.3192
2023-04-15T11:37:27.532Z,76.9731
2023-04-15T11:38:27.874Z,76.8645
2023-04-15T11:39:28.303Z,77.2986
2023-04-15T11:40:28.654Z,78.1738
2023-04-15T11:41:29.030Z,78.3060
2023-04-15T11:42:39.280Z,78.5284
2023-04-15T11:43:30.658Z,78.7387
2023-04-15T11:44:31.103Z,78.7030
2023-04-15T11:45:31.515Z,78.8093
2023-04-15T11:46:32.240Z,78.8687
2023-04-15T11:47:32.945Z,78.1661
2023-04-15T11:48:33.405Z,78.5909
2023-04-15T11:49:33.771Z,78.8343
2023-04-15T11:50:34.197Z,78.8913
2023-04-15T11:51:34.571Z,79.1898
2023-04-15T11:52:34.985Z,79.0750
2023-04-15T11:53:35.373Z,79.4700
2023-04-15T11:54:35.777Z,80.3661
2023-04-15T11:55:36.208Z,79.1994
2023-04-15T11:56:36.584Z,78.7628
2023-04-15T11:57:36.983Z,78.6946
2023-04-15T11:58:37.371Z,79.3274
2023-04-15T11:59:45.446Z,76.8742
2023-04-15T12:00:38.829Z,76.8790
2023-04-15T12:01:39.219Z,77.1170
2023-04-15T12:02:39.669Z,76.9882
2023-04-15T12:03:40.277Z,76.7227
2023-04-15T12:04:41.208Z,76.4516
2023-04-15T12:05:41.891Z,75.7184
2023-04-15T12:06:42.310Z,75.3853
2023-04-15T12:07:42.680Z,75.6076
2023-04-15T12:08:43.048Z,74.5313
2023-04-15T12:09:43.417Z,73.0437